Time;durP1;ratioP1;P1;durP2;ratioP2;P2;SDS_P1;SDS_P2;PMS_P1;PMS_P2;Temp;Humidity;BMP_temperature;BMP_pressure;BME280_temperature;BME280_humidity;BME280_pressure;Samples;Min_cycle;Max_cycle;Signal;HPM_P1;HPM_P2
2022/03/14 00:00:22;;;;;;;2.38;0.90;;;12.90;66.50;;;;;;5032201;28;20033;-77
2022/03/14 00:02:48;;;;;;;2.33;0.90;;;13.00;66.40;;;;;;5033411;28;20034;-77
2022/03/14 00:05:15;;;;;;;2.00;0.77;;;12.90;66.40;;;;;;5032536;28;20029;-77
2022/03/14 00:07:47;;;;;;;2.03;1.00;;;12.90;66.60;;;;;;5016228;28;20433;-77
2022/03/14 00:10:16;;;;;;;4.00;0.90;;;12.90;66.80;;;;;;5033329;28;20068;-77
2022/03/14 00:12:43;;;;;;;2.15;0.90;;;12.90;66.60;;;;;;5032447;28;20022;-76
2022/03/14 00:15:13;;;;;;;2.60;0.80;;;12.90;67.20;;;;;;5031998;28;20490;-77
2022/03/14 00:17:40;;;;;;;3.00;0.82;;;12.90;66.70;;;;;;5032073;28;20018;-77
2022/03/14 00:20:08;;;;;;;4.93;0.80;;;12.90;67.00;;;;;;5032180;28;20109;-75
2022/03/14 00:22:36;;;;;;;1.45;0.70;;;12.80;67.00;;;;;;5031978;28;20037;-75
2022/03/14 00:25:02;;;;;;;4.13;1.02;;;12.80;67.00;;;;;;5033475;28;20032;-77
2022/03/14 00:27:27;;;;;;;2.05;1.00;;;12.80;67.20;;;;;;5033504;28;20034;-75
2022/03/14 00:29:53;;;;;;;1.58;0.70;;;12.90;67.50;;;;;;5031855;28;20371;-75
2022/03/14 00:32:19;;;;;;;1.70;0.70;;;12.80;67.30;;;;;;5031879;28;20049;-74
2022/03/14 00:34:44;;;;;;;1.27;0.60;;;12.70;67.20;;;;;;5033022;28;20040;-75
2022/03/14 00:37:10;;;;;;;1.90;0.85;;;12.80;67.50;;;;;;5031998;28;20465;-75
2022/03/14 00:39:36;;;;;;;2.22;0.90;;;12.70;67.40;;;;;;5015447;28;20029;-74
2022/03/14 00:42:02;;;;;;;1.80;0.80;;;12.70;67.70;;;;;;5031870;28;20033;-75
2022/03/14 00:44:28;;;;;;;2.17;0.80;;;12.70;67.80;;;;;;5032936;28;20083;-75
2022/03/14 00:46:54;;;;;;;2.05;0.80;;;12.60;67.90;;;;;;5031693;28;20030;-75
2022/03/14 00:49:20;;;;;;;1.77;0.85;;;12.60;68.10;;;;;;5034469;28;20386;-75
2022/03/14 00:51:45;;;;;;;1.60;0.70;;;12.60;68.30;;;;;;5019224;28;20033;-75
2022/03/14 00:54:12;;;;;;;1.92;0.70;;;12.60;68.70;;;;;;5035576;28;20036;-75
2022/03/14 00:56:39;;;;;;;2.20;0.93;;;12.50;68.60;;;;;;5036580;28;20049;-75
2022/03/14 00:59:04;;;;;;;2.45;0.65;;;12.60;68.70;;;;;;5036693;28;20037;-75
2022/03/14 01:01:30;;;;;;;1.95;0.65;;;12.50;68.60;;;;;;5035702;28;20030;-75
2022/03/14 01:03:58;;;;;;;2.65;1.00;;;12.50;69.30;;;;;;5037041;28;20096;-75
2022/03/14 01:06:24;;;;;;;1.25;0.70;;;12.50;69.30;;;;;;5036796;28;20021;-75
2022/03/14 01:08:49;;;;;;;1.48;0.65;;;12.50;69.30;;;;;;5035276;28;20117;-74
2022/03/14 01:11:15;;;;;;;1.67;0.70;;;12.50;69.70;;;;;;5018788;28;20053;-78
2022/03/14 01:13:41;;;;;;;1.25;0.70;;;12.40;69.50;;;;;;5036485;28;20481;-74
2022/03/14 01:16:07;;;;;;;2.28;1.02;;;12.40;70.00;;;;;;5036667;28;20554;-75
2022/03/14 01:18:33;;;;;;;2.40;0.90;;;12.40;70.00;;;;;;5035128;28;20071;-75
2022/03/14 01:20:58;;;;;;;2.38;0.90;;;12.40;70.30;;;;;;5036734;28;20034;-75
2022/03/14 01:23:24;;;;;;;2.40;1.13;;;12.40;70.90;;;;;;5036263;28;20110;-75
2022/03/14 01:25:51;;;;;;;2.80;1.23;;;12.50;70.50;;;;;;5035044;28;20389;-75
2022/03/14 01:28:17;;;;;;;2.22;1.10;;;12.30;70.40;;;;;;5035911;28;20497;-74
2022/03/14 01:30:43;;;;;;;2.42;1.15;;;12.40;70.50;;;;;;5036249;28;20049;-75
2022/03/14 01:33:09;;;;;;;1.90;0.82;;;12.40;70.70;;;;;;5036054;28;20045;-75
2022/03/14 01:35:36;;;;;;;2.17;0.80;;;12.40;70.90;;;;;;5018181;28;20017;-75
2022/03/14 01:38:02;;;;;;;2.38;1.00;;;12.40;70.70;;;;;;5035936;28;20053;-75
2022/03/14 01:40:28;;;;;;;1.77;0.80;;;12.40;70.90;;;;;;5034785;28;20060;-74
2022/03/14 01:42:54;;;;;;;2.83;1.10;;;12.30;71.20;;;;;;5036070;28;20033;-75
2022/03/14 01:45:21;;;;;;;2.13;0.90;;;12.30;71.30;;;;;;5035812;28;20033;-77
2022/03/14 01:47:48;;;;;;;2.03;0.80;;;12.30;71.00;;;;;;5034781;28;20449;-75
2022/03/14 01:50:14;;;;;;;2.40;0.90;;;12.40;71.30;;;;;;5034432;28;20033;-75
2022/03/14 01:52:41;;;;;;;2.15;0.90;;;12.30;71.70;;;;;;5036173;28;20108;-75
2022/03/14 01:55:07;;;;;;;2.22;0.77;;;12.30;71.50;;;;;;5034319;28;20017;-75
2022/03/14 01:57:34;;;;;;;2.42;1.08;;;12.30;71.30;;;;;;5035551;28;20099;-75
2022/03/14 02:00:00;;;;;;;2.90;1.02;;;12.30;71.30;;;;;;5034022;28;20068;-75
2022/03/14 02:02:26;;;;;;;2.00;1.00;;;12.30;71.70;;;;;;5033801;28;20029;-75
2022/03/14 02:04:53;;;;;;;2.53;1.00;;;12.30;71.80;;;;;;5035340;28;20108;-75
2022/03/14 02:07:20;;;;;;;2.58;1.02;;;12.20;71.70;;;;;;5035497;28;20029;-78
2022/03/14 02:09:46;;;;;;;4.03;1.65;;;12.20;71.80;;;;;;5034672;28;20386;-75
2022/03/14 02:12:12;;;;;;;3.10;1.15;;;12.20;72.10;;;;;;5034006;28;20014;-75
2022/03/14 02:14:41;;;;;;;2.47;0.95;;;12.20;72.10;;;;;;5017471;28;20053;-74
2022/03/14 02:17:12;;;;;;;2.60;1.23;;;12.20;72.20;;;;;;5034117;28;20029;-75
2022/03/14 02:19:39;;;;;;;3.88;1.65;;;12.20;72.10;;;;;;5035091;28;20030;-74
2022/03/14 02:22:09;;;;;;;3.13;1.43;;;12.20;72.40;;;;;;5034225;28;20029;-74
2022/03/14 02:24:35;;;;;;;2.55;1.20;;;12.20;72.60;;;;;;5035106;28;20077;-74
2022/03/14 02:27:03;;;;;;;3.73;1.50;;;12.20;72.90;;;;;;5034357;28;20071;-75
2022/03/14 02:29:28;;;;;;;4.88;1.25;;;12.20;73.60;;;;;;5033548;28;20025;-75
2022/03/14 02:31:54;;;;;;;4.60;1.53;;;12.10;72.90;;;;;;5034062;28;20036;-75
2022/03/14 02:34:20;;;;;;;2.33;1.20;;;12.10;73.00;;;;;;5033615;28;20076;-75
2022/03/14 02:36:45;;;;;;;3.45;1.55;;;12.10;73.20;;;;;;5034950;28;20075;-77
2022/03/14 02:39:11;;;;;;;2.85;1.45;;;12.20;73.40;;;;;;5033889;28;20025;-74
2022/03/14 02:41:37;;;;;;;3.60;1.58;;;12.10;73.40;;;;;;5033721;28;20030;-74
2022/03/14 02:44:08;;;;;;;3.57;1.67;;;12.10;73.40;;;;;;5033398;28;20028;-75
2022/03/14 02:46:38;;;;;;;4.35;1.77;;;12.10;73.60;;;;;;5034714;28;20114;-75
2022/03/14 02:49:10;;;;;;;4.93;1.97;;;12.20;73.90;;;;;;5034942;28;20018;-75
2022/03/14 02:51:39;;;;;;;3.15;1.42;;;12.00;74.00;;;;;;5033538;28;20017;-76
2022/03/14 02:54:06;;;;;;;3.00;1.63;;;12.00;74.40;;;;;;5033456;28;20026;-76
2022/03/14 02:56:37;;;;;;;4.33;1.70;;;12.00;74.80;;;;;;5051457;28;20049;-76
2022/03/14 02:59:05;;;;;;;3.37;1.70;;;12.00;74.90;;;;;;5054566;28;20699;-75
2022/03/14 03:01:31;;;;;;;3.97;2.00;;;11.90;74.90;;;;;;5052649;28;20025;-76
2022/03/14 03:03:57;;;;;;;3.77;1.80;;;11.90;75.40;;;;;;5052934;28;20017;-75
2022/03/14 03:06:23;;;;;;;3.45;1.67;;;11.90;75.30;;;;;;5036277;28;20028;-75
2022/03/14 03:08:53;;;;;;;4.05;1.63;;;11.80;75.30;;;;;;5054368;28;20025;-75
2022/03/14 03:11:22;;;;;;;3.63;2.03;;;11.80;75.60;;;;;;5053759;28;20503;-75
2022/03/14 03:13:49;;;;;;;2.72;1.40;;;11.90;76.20;;;;;;5054183;28;20029;-75
2022/03/14 03:16:16;;;;;;;4.73;2.20;;;11.80;76.30;;;;;;5054691;28;20032;-76
2022/03/14 03:18:45;;;;;;;3.23;1.63;;;11.80;76.50;;;;;;5054170;28;20031;-75
2022/03/14 03:21:11;;;;;;;3.97;1.80;;;11.80;76.30;;;;;;5053960;28;20064;-75
2022/03/14 03:23:38;;;;;;;4.80;2.13;;;11.80;76.70;;;;;;5052694;28;20392;-76
2022/03/14 03:26:04;;;;;;;2.97;1.70;;;11.80;76.70;;;;;;5054017;28;20564;-75
2022/03/14 03:28:35;;;;;;;3.00;1.30;;;11.80;76.80;;;;;;5052742;28;20108;-75
2022/03/14 03:31:13;;;;;;;4.18;2.30;;;11.70;76.90;;;;;;5052624;28;20025;-75
2022/03/14 03:33:39;;;;;;;3.43;1.50;;;11.80;77.30;;;;;;5053763;28;20095;-76
2022/03/14 03:36:06;;;;;;;4.27;1.97;;;11.70;77.50;;;;;;5052638;28;20029;-76
2022/03/14 03:38:33;;;;;;;5.20;1.90;;;11.70;77.70;;;;;;5053895;28;20427;-76
2022/03/14 03:40:59;;;;;;;5.03;1.80;;;11.80;78.00;;;;;;5052735;28;20438;-75
2022/03/14 03:43:24;;;;;;;4.20;2.00;;;11.70;78.10;;;;;;5052343;28;20072;-76
2022/03/14 03:45:50;;;;;;;3.73;1.90;;;11.70;78.10;;;;;;5053520;28;20044;-75
2022/03/14 03:48:17;;;;;;;3.73;1.67;;;11.70;78.20;;;;;;5053602;28;20057;-75
2022/03/14 03:50:43;;;;;;;3.67;1.80;;;11.70;78.30;;;;;;5052424;28;20385;-75
2022/03/14 03:53:09;;;;;;;3.20;1.60;;;11.70;78.40;;;;;;5052116;28;20029;-76
2022/03/14 03:55:35;;;;;;;3.63;1.73;;;11.70;78.50;;;;;;5051914;28;20037;-76
2022/03/14 03:58:01;;;;;;;4.50;2.20;;;11.70;79.10;;;;;;5053311;28;20028;-76
2022/03/14 04:00:27;;;;;;;4.60;2.00;;;11.70;79.10;;;;;;5052039;28;20102;-75
2022/03/14 04:02:52;;;;;;;3.67;1.70;;;11.70;79.20;;;;;;5053166;28;20064;-75
2022/03/14 04:05:20;;;;;;;3.73;1.80;;;11.70;79.60;;;;;;5053257;28;20108;-76
2022/03/14 04:07:46;;;;;;;4.57;2.10;;;11.70;79.60;;;;;;5053499;28;20044;-76
2022/03/14 04:10:15;;;;;;;5.43;2.50;;;11.70;80.10;;;;;;5053075;28;20389;-76
2022/03/14 04:12:43;;;;;;;5.10;2.40;;;11.60;80.10;;;;;;5053107;28;20108;-75
2022/03/14 04:15:09;;;;;;;4.37;2.20;;;11.60;80.30;;;;;;5053134;28;20022;-75
2022/03/14 04:17:40;;;;;;;4.47;2.23;;;11.60;80.30;;;;;;5051789;28;20389;-76
2022/03/14 04:20:08;;;;;;;3.87;1.90;;;11.60;80.30;;;;;;5053233;28;20036;-76
2022/03/14 04:22:38;;;;;;;4.87;2.40;;;11.60;80.40;;;;;;5051879;28;20486;-76
2022/03/14 04:25:05;;;;;;;5.10;2.10;;;11.50;80.50;;;;;;5055899;28;20041;-76
2022/03/14 04:27:31;;;;;;;3.87;2.10;;;11.50;80.70;;;;;;5056053;28;20428;-76
2022/03/14 04:29:57;;;;;;;5.33;2.60;;;11.50;81.50;;;;;;5039224;28;20032;-75
2022/03/14 04:32:23;;;;;;;5.13;2.57;;;11.50;81.00;;;;;;5055715;28;20029;-76
2022/03/14 04:34:49;;;;;;;5.33;2.80;;;11.40;81.30;;;;;;5055201;28;20377;-76
2022/03/14 04:37:15;;;;;;;4.43;2.60;;;11.40;81.30;;;;;;5022903;28;20116;-76
2022/03/14 04:39:41;;;;;;;4.67;2.53;;;11.40;81.90;;;;;;5056831;28;20117;-76
2022/03/14 04:42:08;;;;;;;5.13;2.13;;;11.40;82.60;;;;;;5055796;28;20025;-76
2022/03/14 04:44:34;;;;;;;3.87;2.27;;;11.40;81.90;;;;;;5056033;28;20036;-76
2022/03/14 04:47:00;;;;;;;3.50;2.03;;;11.30;82.10;;;;;;5057012;28;20458;-76
2022/03/14 04:49:27;;;;;;;4.83;2.50;;;11.30;82.20;;;;;;5056655;28;20032;-76
2022/03/14 04:51:54;;;;;;;4.73;2.60;;;11.30;82.30;;;;;;5056876;28;20385;-77
2022/03/14 04:54:19;;;;;;;3.80;2.20;;;11.20;82.10;;;;;;5055508;28;20028;-76
2022/03/14 04:56:45;;;;;;;5.17;3.00;;;11.20;82.50;;;;;;5055406;28;20053;-76
2022/03/14 04:59:11;;;;;;;6.00;3.00;;;11.20;83.10;;;;;;5038938;28;20469;-76
2022/03/14 05:01:38;;;;;;;6.13;3.80;;;11.10;83.30;;;;;;5038736;28;20026;-76
2022/03/14 05:04:04;;;;;;;5.30;3.23;;;11.10;84.40;;;;;;5055352;28;20029;-77
2022/03/14 05:06:32;;;;;;;5.57;3.60;;;11.00;86.10;;;;;;5055449;28;20032;-75
2022/03/14 05:08:58;;;;;;;7.00;3.73;;;10.90;85.90;;;;;;5056546;28;20021;-76
2022/03/14 05:11:24;;;;;;;6.83;3.90;;;10.80;86.80;;;;;;5056581;28;20070;-76
2022/03/14 05:13:50;;;;;;;6.23;3.87;;;10.70;87.20;;;;;;5054956;28;20029;-75
2022/03/14 05:16:15;;;;;;;5.97;3.87;;;10.60;87.30;;;;;;5055238;28;20082;-75
2022/03/14 05:18:41;;;;;;;6.20;4.07;;;10.60;88.10;;;;;;5055144;28;20489;-75
2022/03/14 05:21:07;;;;;;;5.10;3.27;;;10.50;88.70;;;;;;5055190;28;20029;-75
2022/03/14 05:23:32;;;;;;;6.50;4.57;;;10.50;89.90;;;;;;5056398;28;20033;-75
2022/03/14 05:25:59;;;;;;;5.73;4.20;;;10.40;90.30;;;;;;5056205;28;20037;-76
2022/03/14 05:28:25;;;;;;;8.13;5.17;;;10.40;90.50;;;;;;5038402;28;20119;-75
2022/03/14 05:30:50;;;;;;;7.13;4.67;;;10.40;90.20;;;;;;5056068;28;20104;-76
2022/03/14 05:33:16;;;;;;;9.10;6.10;;;10.40;90.50;;;;;;5055050;28;20052;-76
2022/03/14 05:35:42;;;;;;;10.03;6.67;;;10.40;91.00;;;;;;5038053;28;20358;-76
2022/03/14 05:38:08;;;;;;;11.17;8.13;;;10.30;91.40;;;;;;5050575;28;20029;-76
2022/03/14 05:40:33;;;;;;;11.43;8.07;;;10.40;91.70;;;;;;5053198;28;20381;-76
2022/03/14 05:43:07;;;;;;;11.83;7.60;;;10.30;91.60;;;;;;5049643;28;20037;-76
2022/03/14 05:45:32;;;;;;;10.35;7.55;;;10.30;91.70;;;;;;5050347;28;20021;-76
2022/03/14 05:47:58;;;;;;;10.83;7.63;;;10.20;91.80;;;;;;5034405;28;20492;-76
2022/03/14 05:50:24;;;;;;;10.87;8.13;;;10.20;91.60;;;;;;5035523;28;20021;-76
2022/03/14 05:52:54;;;;;;;11.60;7.70;;;10.30;91.90;;;;;;5035486;28;20034;-76
2022/03/14 05:55:19;;;;;;;12.27;8.90;;;10.20;92.00;;;;;;5035657;28;20029;-76
2022/03/14 05:57:45;;;;;;;12.70;9.60;;;10.20;92.40;;;;;;5050943;28;20043;-75
2022/03/14 06:00:13;;;;;;;13.27;9.10;;;10.20;92.30;;;;;;5035442;28;20029;-76
2022/03/14 06:02:44;;;;;;;17.73;10.30;;;10.20;92.60;;;;;;5035403;28;20057;-75
2022/03/14 06:05:10;;;;;;;11.67;8.53;;;10.20;92.80;;;;;;5035939;28;20519;-75
2022/03/14 06:07:35;;;;;;;12.93;8.43;;;10.20;92.80;;;;;;5034177;28;20120;-75
2022/03/14 06:10:01;;;;;;;10.97;7.93;;;10.20;92.90;;;;;;5033887;28;20065;-75
2022/03/14 06:12:28;;;;;;;14.47;9.13;;;10.10;93.30;;;;;;5034198;28;20021;-75
2022/03/14 06:14:55;;;;;;;10.63;7.90;;;10.10;93.30;;;;;;5035244;28;20017;-75
2022/03/14 06:17:21;;;;;;;13.93;9.10;;;10.10;93.50;;;;;;5050258;28;20031;-75
2022/03/14 06:19:47;;;;;;;12.07;7.80;;;10.10;93.60;;;;;;5035041;28;20034;-75
2022/03/14 06:22:21;;;;;;;11.87;8.40;;;10.10;93.60;;;;;;5050452;28;20116;-75
2022/03/14 06:24:48;;;;;;;10.98;7.88;;;10.20;93.60;;;;;;5050134;28;20030;-74
2022/03/14 06:27:17;;;;;;;14.00;9.17;;;10.10;93.70;;;;;;5035340;28;20151;-75
2022/03/14 06:29:44;;;;;;;13.13;8.70;;;10.10;93.80;;;;;;5049960;28;20432;-75
2022/03/14 06:32:10;;;;;;;13.20;8.10;;;10.10;93.90;;;;;;5034720;28;20025;-75
2022/03/14 06:34:37;;;;;;;13.57;8.23;;;10.20;94.10;;;;;;5034551;28;20025;-75
2022/03/14 06:37:07;;;;;;;13.63;9.00;;;10.10;94.00;;;;;;5049710;28;20018;-74
2022/03/14 06:39:35;;;;;;;13.53;8.60;;;10.10;94.10;;;;;;5034551;28;20551;-75
2022/03/14 06:42:05;;;;;;;14.60;8.93;;;10.20;94.10;;;;;;5034800;28;20025;-75
2022/03/14 06:44:31;;;;;;;14.83;9.87;;;10.20;94.50;;;;;;5033400;28;20025;-75
2022/03/14 06:46:57;;;;;;;14.93;10.23;;;10.10;94.20;;;;;;5033978;28;20026;-75
2022/03/14 06:49:24;;;;;;;12.77;9.13;;;10.10;94.50;;;;;;5049398;28;20029;-74
2022/03/14 06:51:50;;;;;;;14.30;10.33;;;10.10;94.40;;;;;;5033131;28;20496;-75
2022/03/14 06:54:16;;;;;;;16.03;10.07;;;10.10;94.60;;;;;;5034090;28;20022;-75
2022/03/14 06:56:42;;;;;;;14.23;9.73;;;10.20;94.60;;;;;;5035506;28;20045;-75
2022/03/14 06:59:08;;;;;;;14.67;9.30;;;10.20;94.70;;;;;;5045921;28;20029;-75
2022/03/14 07:01:34;;;;;;;13.97;9.30;;;10.20;94.40;;;;;;5039519;28;20107;-76
2022/03/14 07:04:02;;;;;;;14.53;9.77;;;10.20;94.40;;;;;;5016253;28;20081;-76
2022/03/14 07:06:28;;;;;;;13.83;9.07;;;10.20;94.60;;;;;;5032738;28;20115;-76
2022/03/14 07:08:54;;;;;;;16.60;11.47;;;10.20;94.50;;;;;;5016384;28;20025;-76
2022/03/14 07:11:19;;;;;;;14.83;10.07;;;10.20;94.70;;;;;;5016049;28;20044;-76
2022/03/14 07:13:45;;;;;;;16.07;10.57;;;10.20;94.80;;;;;;5032565;28;20425;-75
2022/03/14 07:16:10;;;;;;;15.73;10.63;;;10.20;94.70;;;;;;5033959;28;20057;-76
2022/03/14 07:18:36;;;;;;;16.77;10.67;;;10.20;94.70;;;;;;5032166;28;20124;-76
2022/03/14 07:21:02;;;;;;;14.93;10.47;;;10.10;94.60;;;;;;5033545;28;20057;-77
2022/03/14 07:23:28;;;;;;;14.43;10.00;;;10.20;94.70;;;;;;5016082;28;20029;-76
2022/03/14 07:25:54;;;;;;;14.57;9.70;;;10.20;94.80;;;;;;5032102;28;20109;-77
2022/03/14 07:28:19;;;;;;;14.00;10.27;;;10.30;94.70;;;;;;5032399;28;20061;-77
2022/03/14 07:30:45;;;;;;;18.43;11.80;;;10.30;94.70;;;;;;4999427;28;20029;-76
2022/03/14 07:33:11;;;;;;;19.17;11.30;;;10.30;94.90;;;;;;5015833;28;20031;-77
2022/03/14 07:35:37;;;;;;;17.40;11.53;;;10.20;94.80;;;;;;5016387;28;20147;-78
2022/03/14 07:38:04;;;;;;;17.53;10.87;;;10.30;95.00;;;;;;5015916;28;20398;-76
2022/03/14 07:40:30;;;;;;;18.27;11.40;;;10.30;94.80;;;;;;5032320;28;20528;-78
2022/03/14 07:42:58;;;;;;;18.00;12.03;;;10.20;95.00;;;;;;5015943;28;20338;-77
2022/03/14 07:45:25;;;;;;;21.27;13.57;;;10.30;95.00;;;;;;5032346;28;20032;-77
2022/03/14 07:47:52;;;;;;;18.07;12.27;;;10.20;95.20;;;;;;5016308;28;20490;-77
2022/03/14 07:50:18;;;;;;;19.13;12.27;;;10.20;95.00;;;;;;4999438;28;20490;-77
2022/03/14 07:52:44;;;;;;;17.87;12.63;;;10.30;95.10;;;;;;5033634;28;20052;-77
2022/03/14 07:55:10;;;;;;;21.00;13.07;;;10.30;95.10;;;;;;5031835;28;20017;-78
2022/03/14 07:57:38;;;;;;;18.10;12.07;;;10.30;95.10;;;;;;5015591;28;20021;-77
2022/03/14 08:00:10;;;;;;;21.13;13.77;;;10.30;95.10;;;;;;5032109;28;20104;-76
2022/03/14 08:02:36;;;;;;;19.60;13.30;;;10.30;95.10;;;;;;5032102;28;20025;-77
2022/03/14 08:05:01;;;;;;;20.77;14.20;;;10.30;95.10;;;;;;5015542;28;20171;-76
2022/03/14 08:07:27;;;;;;;22.03;13.77;;;10.40;95.20;;;;;;5031920;28;20057;-77
2022/03/14 08:09:53;;;;;;;20.37;14.17;;;10.40;95.10;;;;;;5015462;28;20049;-75
2022/03/14 08:12:21;;;;;;;19.90;14.50;;;10.40;95.20;;;;;;5033460;28;20545;-76
2022/03/14 08:14:47;;;;;;;21.53;15.07;;;10.50;95.30;;;;;;5015764;28;20022;-75
2022/03/14 08:17:13;;;;;;;20.80;15.03;;;10.50;95.10;;;;;;4999437;28;20022;-76
2022/03/14 08:19:39;;;;;;;22.40;15.57;;;10.50;95.10;;;;;;5031961;28;20117;-77
2022/03/14 08:22:05;;;;;;;24.57;16.17;;;10.60;95.30;;;;;;5015538;28;20029;-77
2022/03/14 08:24:32;;;;;;;23.10;16.60;;;10.60;95.20;;;;;;5033103;28;20025;-76
2022/03/14 08:26:58;;;;;;;24.03;16.67;;;10.70;95.20;;;;;;5031911;28;20064;-77
2022/03/14 08:29:24;;;;;;;22.40;16.63;;;10.70;95.10;;;;;;5031782;28;20057;-80
2022/03/14 08:31:50;;;;;;;25.93;18.33;;;10.70;95.10;;;;;;5031867;28;20022;-79
2022/03/14 08:34:16;;;;;;;25.10;18.40;;;10.70;95.00;;;;;;5031628;28;20385;-76
2022/03/14 08:36:42;;;;;;;23.57;16.47;;;10.70;94.90;;;;;;5015537;28;20377;-78
2022/03/14 08:39:09;;;;;;;25.30;16.60;;;10.80;94.90;;;;;;5015290;28;20033;-76
2022/03/14 08:41:37;;;;;;;26.13;18.17;;;10.70;94.90;;;;;;5015374;28;20028;-78
2022/03/14 08:44:04;;;;;;;27.93;17.43;;;10.70;94.80;;;;;;5015856;28;20147;-77
2022/03/14 08:46:30;;;;;;;23.90;16.97;;;10.80;94.80;;;;;;5031781;28;20076;-81
2022/03/14 08:48:57;;;;;;;24.00;17.40;;;10.80;94.80;;;;;;5031720;28;20565;-81
2022/03/14 08:51:23;;;;;;;24.27;18.03;;;10.80;94.70;;;;;;5015367;28;20025;-80
2022/03/14 08:53:49;;;;;;;24.03;16.97;;;10.80;94.60;;;;;;5031633;28;20025;-78
2022/03/14 08:56:14;;;;;;;25.27;16.70;;;10.80;94.60;;;;;;5031587;28;20107;-78
2022/03/14 08:58:40;;;;;;;22.80;16.93;;;10.90;94.60;;;;;;4999251;28;20040;-79
2022/03/14 09:01:07;;;;;;;22.27;16.43;;;10.90;94.50;;;;;;5015201;28;20033;-79
2022/03/14 09:03:33;;;;;;;26.57;18.27;;;10.90;94.30;;;;;;5033094;28;20076;-80
2022/03/14 09:05:58;;;;;;;25.17;17.77;;;10.90;94.30;;;;;;5015221;28;20494;-79
2022/03/14 09:08:26;;;;;;;30.77;19.43;;;10.90;94.30;;;;;;5015184;28;20029;-79
2022/03/14 09:10:53;;;;;;;23.53;17.07;;;11.00;94.10;;;;;;5034887;28;20424;-78
2022/03/14 09:13:23;;;;;;;30.07;17.83;;;10.90;94.10;;;;;;5018966;28;20478;-79
2022/03/14 09:15:50;;;;;;;24.03;18.53;;;10.90;94.00;;;;;;5019249;28;20474;-78
2022/03/14 09:18:16;;;;;;;23.97;18.30;;;10.90;94.00;;;;;;5018659;28;20044;-80
2022/03/14 09:20:42;;;;;;;25.03;19.37;;;10.90;93.90;;;;;;5019121;28;20029;-78
2022/03/14 09:23:08;;;;;;;28.77;18.37;;;11.00;93.90;;;;;;5018725;28;20036;-79
2022/03/14 09:25:35;;;;;;;26.17;17.93;;;10.90;93.80;;;;;;5034981;28;20029;-79
2022/03/14 09:28:01;;;;;;;27.37;19.33;;;11.00;93.80;;;;;;5034956;28;20026;-77
2022/03/14 09:30:27;;;;;;;26.63;18.52;;;11.00;94.10;;;;;;5034875;28;20355;-78
2022/03/14 09:32:54;;;;;;;27.13;19.60;;;11.10;93.70;;;;;;5018422;28;20478;-79
2022/03/14 09:35:22;;;;;;;26.60;17.80;;;11.10;93.70;;;;;;5034878;28;20100;-81
2022/03/14 09:37:49;;;;;;;27.77;18.33;;;11.20;93.60;;;;;;5018769;28;20032;-79
2022/03/14 09:40:22;;;;;;;27.60;19.70;;;11.20;93.50;;;;;;5034789;28;20029;-80
2022/03/14 09:42:52;;;;;;;30.13;20.85;;;11.20;93.40;;;;;;5018555;28;20552;-78
2022/03/14 09:45:19;;;;;;;30.80;20.83;;;11.30;93.30;;;;;;5034677;28;20021;-79
2022/03/14 09:47:55;;;;;;;29.17;20.37;;;11.20;93.30;;;;;;5001744;28;20025;-79
2022/03/14 09:50:34;;;;;;;27.23;20.63;;;11.20;93.40;;;;;;5034377;28;20079;-79
2022/03/14 09:53:06;;;;;;;26.70;19.90;;;11.10;93.50;;;;;;5035789;28;20017;-78
2022/03/14 09:55:35;;;;;;;26.27;20.30;;;11.20;93.40;;;;;;5034313;28;20390;-78
2022/03/14 09:58:02;;;;;;;25.60;19.33;;;11.20;93.40;;;;;;5018452;28;20037;-80
2022/03/14 10:00:28;;;;;;;32.70;22.17;;;11.30;93.30;;;;;;5001962;28;20033;-79
2022/03/14 10:02:54;;;;;;;30.27;20.83;;;11.30;93.20;;;;;;5034280;28;20041;-77
2022/03/14 10:05:20;;;;;;;28.93;21.40;;;11.30;93.20;;;;;;5034403;28;20029;-79
2022/03/14 10:07:46;;;;;;;31.65;22.35;;;11.40;93.20;;;;;;5001325;28;20021;-80
2022/03/14 10:10:13;;;;;;;29.90;20.87;;;11.30;93.10;;;;;;5017512;28;20536;-79
2022/03/14 10:12:41;;;;;;;32.15;21.48;;;11.40;93.10;;;;;;5034191;28;20389;-78
2022/03/14 10:15:08;;;;;;;28.70;21.23;;;11.40;93.10;;;;;;5035422;28;20030;-83
2022/03/14 10:17:35;;;;;;;28.07;21.03;;;11.40;93.10;;;;;;5033940;28;20021;-78
2022/03/14 10:20:03;;;;;;;26.63;20.38;;;11.50;93.10;;;;;;5001698;28;20044;-80
2022/03/14 10:22:35;;;;;;;29.92;19.10;;;11.50;93.10;;;;;;5016820;28;20120;-79
2022/03/14 10:25:09;;;;;;;30.75;21.33;;;11.50;92.90;;;;;;5034291;28;20033;-77
2022/03/14 10:27:37;;;;;;;27.98;19.98;;;11.50;92.80;;;;;;5034084;28;20029;-77
2022/03/14 10:30:06;;;;;;;28.30;19.20;;;11.50;92.80;;;;;;5035048;28;20021;-77
2022/03/14 10:32:33;;;;;;;28.20;19.73;;;11.60;92.80;;;;;;5034001;28;20017;-78
2022/03/14 10:35:05;;;;;;;23.70;18.45;;;11.70;92.90;;;;;;5033688;28;20021;-78
2022/03/14 10:37:32;;;;;;;22.77;16.50;;;11.80;92.70;;;;;;5033563;28;20017;-78
2022/03/14 10:40:04;;;;;;;25.20;18.05;;;11.90;92.50;;;;;;5017108;28;20370;-80
2022/03/14 10:42:41;;;;;;;25.02;17.35;;;12.00;92.30;;;;;;5033553;28;20381;-78
2022/03/14 10:45:17;;;;;;;21.50;16.38;;;12.00;92.20;;;;;;5033679;28;20481;-78
2022/03/14 10:47:54;;;;;;;26.25;18.15;;;12.10;92.00;;;;;;5033526;28;20040;-80
2022/03/14 10:50:35;;;;;;;29.48;20.33;;;12.10;91.80;;;;;;5034706;28;20112;-78
2022/03/14 10:53:06;;;;;;;25.15;18.70;;;12.10;91.60;;;;;;5016915;28;20028;-77
2022/03/14 10:55:41;;;;;;;26.40;18.90;;;12.10;91.60;;;;;;5032946;28;20067;-78
2022/03/14 10:58:18;;;;;;;26.13;18.48;;;12.20;91.50;;;;;;5033560;28;20021;-78
2022/03/14 11:00:56;;;;;;;29.05;18.95;;;12.20;91.40;;;;;;5033378;28;20056;-77
2022/03/14 11:03:22;;;;;;;24.45;17.45;;;12.30;91.30;;;;;;5033202;28;20044;-78
2022/03/14 11:05:48;;;;;;;26.20;18.23;;;12.40;91.30;;;;;;5034294;28;20478;-78
2022/03/14 11:08:26;;;;;;;22.35;15.93;;;12.50;91.20;;;;;;5034304;28;20029;-78
2022/03/14 11:10:53;;;;;;;22.60;17.13;;;12.60;91.00;;;;;;5032947;28;20025;-78
2022/03/14 11:13:19;;;;;;;20.25;15.52;;;12.70;90.70;;;;;;5016531;28;20032;-78
2022/03/14 11:15:45;;;;;;;20.88;14.98;;;12.80;90.50;;;;;;5016800;28;20033;-80
2022/03/14 11:18:11;;;;;;;18.67;15.18;;;12.80;90.00;;;;;;5032818;28;20028;-79
2022/03/14 11:20:38;;;;;;;23.10;15.13;;;12.80;89.40;;;;;;5033165;28;20116;-78
2022/03/14 11:23:05;;;;;;;20.20;14.50;;;12.70;88.90;;;;;;5034510;28;20140;-78
2022/03/14 11:25:32;;;;;;;24.90;14.80;;;12.70;89.10;;;;;;5016301;28;20025;-80
2022/03/14 11:27:58;;;;;;;23.35;14.85;;;12.70;89.10;;;;;;5032766;28;20111;-78
2022/03/14 11:30:26;;;;;;;23.33;13.50;;;12.70;89.20;;;;;;5032495;28;20021;-78
2022/03/14 11:32:52;;;;;;;21.13;12.15;;;12.80;88.80;;;;;;5015765;28;20427;-78
2022/03/14 11:35:18;;;;;;;19.65;11.30;;;12.90;88.30;;;;;;5016128;28;20033;-78
2022/03/14 11:37:45;;;;;;;17.58;11.63;;;13.00;88.60;;;;;;5015977;28;20390;-78
2022/03/14 11:40:14;;;;;;;18.70;11.60;;;13.10;88.00;;;;;;5016180;28;20029;-77
2022/03/14 11:42:40;;;;;;;16.52;10.55;;;13.10;86.80;;;;;;5032520;28;20033;-79
2022/03/14 11:45:07;;;;;;;20.95;11.13;;;13.20;86.40;;;;;;5032872;28;20379;-80
2022/03/14 11:47:33;;;;;;;18.02;10.88;;;13.30;86.80;;;;;;5015850;28;20477;-79
2022/03/14 11:50:00;;;;;;;20.15;11.15;;;13.70;87.00;;;;;;5033396;28;20029;-78
2022/03/14 11:52:43;;;;;;;14.90;8.82;;;13.70;85.60;;;;;;5032137;28;20032;-79
2022/03/14 11:55:20;;;;;;;17.17;10.43;;;13.80;85.60;;;;;;5032180;28;20024;-80
2022/03/14 11:57:47;;;;;;;17.95;10.40;;;13.90;84.10;;;;;;5033478;28;20367;-77
2022/03/14 12:00:24;;;;;;;16.35;10.73;;;13.90;83.40;;;;;;5032874;28;20052;-79
2022/03/14 12:02:52;;;;;;;19.95;9.55;;;13.80;82.90;;;;;;5033816;28;20029;-78
2022/03/14 12:05:30;;;;;;;14.25;9.00;;;14.20;85.00;;;;;;5032093;28;20033;-80
2022/03/14 12:07:56;;;;;;;16.15;10.05;;;14.50;83.20;;;;;;5033409;28;20087;-78
2022/03/14 12:10:26;;;;;;;13.25;8.52;;;14.50;81.70;;;;;;5016105;28;20034;-81
2022/03/14 12:12:53;;;;;;;16.63;8.98;;;14.50;80.50;;;;;;5031958;28;20477;-78
2022/03/14 12:15:44;;;;;;;14.70;7.07;;;14.90;82.50;;;;;;5032375;28;20466;-78
2022/03/14 12:18:38;;;;;;;12.85;6.20;;;15.80;80.60;;;;;;5031917;28;20037;-79
2022/03/14 12:21:42;;;;;;;14.40;6.30;;;16.30;77.90;;;;;;5029874;28;20064;-78
2022/03/14 12:24:17;;;;;;;11.38;7.03;;;16.70;77.30;;;;;;5031754;28;20068;-79
2022/03/14 12:26:43;;;;;;;12.18;5.80;;;17.00;75.20;;;;;;5016794;28;20486;-79
2022/03/14 12:29:34;;;;;;;11.68;5.38;;;17.40;74.20;;;;;;5032556;28;20450;-77
2022/03/14 12:32:26;;;;;;;9.65;4.40;;;18.20;73.20;;;;;;5031942;28;20375;-79
2022/03/14 12:34:59;;;;;;;9.98;5.43;;;19.10;69.20;;;;;;5031813;28;20199;-83
2022/03/14 12:37:52;;;;;;;8.20;4.32;;;19.20;65.30;;;;;;5032282;28;20025;-79
2022/03/14 12:40:36;;;;;;;12.50;5.90;;;19.20;62.90;;;;;;5033013;28;20071;-80